sensor_id;sensor_type;location;lat;lon;timestamp;P1;durP1;ratioP1;P2;durP2;ratioP2
72676;SDS011;60755;51.374;10.662;2023-12-29T00:01:55;2.70;;;2.13;;
72676;SDS011;60755;51.374;10.662;2023-12-29T00:04:24;1.73;;;1.63;;
72676;SDS011;60755;51.374;10.662;2023-12-29T00:06:51;2.13;;;2.03;;
72676;SDS011;60755;51.374;10.662;2023-12-29T00:09:18;1.70;;;1.60;;
72676;SDS011;60755;51.374;10.662;2023-12-29T00:11:47;1.43;;;1.43;;
72676;SDS011;60755;51.374;10.662;2023-12-29T00:14:16;1.80;;;1.70;;
72676;SDS011;60755;51.374;10.662;2023-12-29T00:16:43;1.53;;;1.43;;
72676;SDS011;60755;51.374;10.662;2023-12-29T00:19:10;1.87;;;1.77;;
72676;SDS011;60755;51.374;10.662;2023-12-29T00:21:38;1.60;;;1.40;;
72676;SDS011;60755;51.374;10.662;2023-12-29T00:24:05;1.60;;;1.60;;
72676;SDS011;60755;51.374;10.662;2023-12-29T00:26:32;1.50;;;1.47;;
72676;SDS011;60755;51.374;10.662;2023-12-29T00:29:00;1.50;;;1.50;;
72676;SDS011;60755;51.374;10.662;2023-12-29T00:31:27;1.37;;;1.37;;
72676;SDS011;60755;51.374;10.662;2023-12-29T00:33:54;1.80;;;1.40;;
72676;SDS011;60755;51.374;10.662;2023-12-29T00:36:21;1.43;;;1.40;;
72676;SDS011;60755;51.374;10.662;2023-12-29T00:38:48;1.50;;;1.40;;
72676;SDS011;60755;51.374;10.662;2023-12-29T00:41:17;1.60;;;1.50;;
72676;SDS011;60755;51.374;10.662;2023-12-29T00:43:44;1.40;;;1.40;;
72676;SDS011;60755;51.374;10.662;2023-12-29T00:46:13;1.40;;;1.30;;
72676;SDS011;60755;51.374;10.662;2023-12-29T00:48:41;1.40;;;1.40;;
72676;SDS011;60755;51.374;10.662;2023-12-29T00:51:08;1.90;;;1.43;;
72676;SDS011;60755;51.374;10.662;2023-12-29T00:53:35;1.60;;;1.50;;
72676;SDS011;60755;51.374;10.662;2023-12-29T00:56:03;1.47;;;1.47;;
72676;SDS011;60755;51.374;10.662;2023-12-29T00:58:36;1.90;;;1.50;;
72676;SDS011;60755;51.374;10.662;2023-12-29T01:01:03;2.27;;;1.33;;
72676;SDS011;60755;51.374;10.662;2023-12-29T01:03:32;1.80;;;1.43;;
72676;SDS011;60755;51.374;10.662;2023-12-29T01:05:59;7.73;;;2.33;;
72676;SDS011;60755;51.374;10.662;2023-12-29T01:08:26;2.23;;;1.60;;
72676;SDS011;60755;51.374;10.662;2023-12-29T01:10:53;1.50;;;1.40;;
72676;SDS011;60755;51.374;10.662;2023-12-29T01:13:20;1.30;;;1.30;;
72676;SDS011;60755;51.374;10.662;2023-12-29T01:15:48;1.40;;;1.40;;
72676;SDS011;60755;51.374;10.662;2023-12-29T01:18:14;1.40;;;1.40;;
72676;SDS011;60755;51.374;10.662;2023-12-29T01:20:43;1.37;;;1.27;;
72676;SDS011;60755;51.374;10.662;2023-12-29T01:23:10;1.27;;;1.17;;
72676;SDS011;60755;51.374;10.662;2023-12-29T01:25:37;1.83;;;1.60;;
72676;SDS011;60755;51.374;10.662;2023-12-29T01:28:04;1.10;;;1.10;;
72676;SDS011;60755;51.374;10.662;2023-12-29T01:30:32;1.40;;;1.40;;
72676;SDS011;60755;51.374;10.662;2023-12-29T01:32:59;1.13;;;1.13;;
72676;SDS011;60755;51.374;10.662;2023-12-29T01:35:26;2.23;;;1.53;;
72676;SDS011;60755;51.374;10.662;2023-12-29T01:37:54;1.20;;;1.20;;
72676;SDS011;60755;51.374;10.662;2023-12-29T01:40:22;1.27;;;1.27;;
72676;SDS011;60755;51.374;10.662;2023-12-29T01:42:48;1.40;;;1.30;;
72676;SDS011;60755;51.374;10.662;2023-12-29T01:45:19;1.50;;;1.50;;
72676;SDS011;60755;51.374;10.662;2023-12-29T01:47:48;2.00;;;1.80;;
72676;SDS011;60755;51.374;10.662;2023-12-29T01:50:16;1.83;;;1.73;;
72676;SDS011;60755;51.374;10.662;2023-12-29T01:52:43;1.40;;;1.40;;
72676;SDS011;60755;51.374;10.662;2023-12-29T01:55:14;2.20;;;1.70;;
72676;SDS011;60755;51.374;10.662;2023-12-29T01:57:44;1.67;;;1.57;;
72676;SDS011;60755;51.374;10.662;2023-12-29T02:00:12;2.00;;;1.50;;
72676;SDS011;60755;51.374;10.662;2023-12-29T02:02:42;1.57;;;1.40;;
72676;SDS011;60755;51.374;10.662;2023-12-29T02:05:10;2.30;;;1.60;;
72676;SDS011;60755;51.374;10.662;2023-12-29T02:07:41;1.50;;;1.47;;
72676;SDS011;60755;51.374;10.662;2023-12-29T02:10:08;1.40;;;1.40;;
72676;SDS011;60755;51.374;10.662;2023-12-29T02:12:40;1.37;;;1.37;;
72676;SDS011;60755;51.374;10.662;2023-12-29T02:15:08;1.30;;;1.30;;
72676;SDS011;60755;51.374;10.662;2023-12-29T02:17:36;1.30;;;1.30;;
72676;SDS011;60755;51.374;10.662;2023-12-29T02:20:07;6.17;;;1.50;;
72676;SDS011;60755;51.374;10.662;2023-12-29T02:22:35;1.17;;;1.17;;
72676;SDS011;60755;51.374;10.662;2023-12-29T02:25:05;1.20;;;1.20;;
72676;SDS011;60755;51.374;10.662;2023-12-29T02:27:34;1.53;;;1.43;;
72676;SDS011;60755;51.374;10.662;2023-12-29T02:30:09;1.20;;;1.20;;
72676;SDS011;60755;51.374;10.662;2023-12-29T02:32:38;1.43;;;1.33;;
72676;SDS011;60755;51.374;10.662;2023-12-29T02:35:08;1.20;;;1.20;;
72676;SDS011;60755;51.374;10.662;2023-12-29T02:37:37;1.10;;;1.10;;
72676;SDS011;60755;51.374;10.662;2023-12-29T02:40:08;1.30;;;1.30;;
72676;SDS011;60755;51.374;10.662;2023-12-29T02:42:35;1.20;;;1.10;;
72676;SDS011;60755;51.374;10.662;2023-12-29T02:45:03;1.20;;;1.20;;
72676;SDS011;60755;51.374;10.662;2023-12-29T02:47:30;1.20;;;1.20;;
72676;SDS011;60755;51.374;10.662;2023-12-29T02:49:58;1.37;;;1.37;;
72676;SDS011;60755;51.374;10.662;2023-12-29T02:52:26;1.37;;;1.27;;
72676;SDS011;60755;51.374;10.662;2023-12-29T02:54:53;1.40;;;1.40;;
72676;SDS011;60755;51.374;10.662;2023-12-29T02:57:21;1.83;;;1.37;;
72676;SDS011;60755;51.374;10.662;2023-12-29T02:59:48;1.50;;;1.40;;
72676;SDS011;60755;51.374;10.662;2023-12-29T03:02:15;1.73;;;1.40;;
72676;SDS011;60755;51.374;10.662;2023-12-29T03:04:42;1.50;;;1.50;;
72676;SDS011;60755;51.374;10.662;2023-12-29T03:07:09;2.77;;;1.57;;
72676;SDS011;60755;51.374;10.662;2023-12-29T03:09:36;1.47;;;1.40;;
72676;SDS011;60755;51.374;10.662;2023-12-29T03:12:04;2.73;;;1.30;;
72676;SDS011;60755;51.374;10.662;2023-12-29T03:14:33;1.40;;;1.40;;
72676;SDS011;60755;51.374;10.662;2023-12-29T03:17:00;1.40;;;1.40;;
72676;SDS011;60755;51.374;10.662;2023-12-29T03:19:28;1.53;;;1.20;;
72676;SDS011;60755;51.374;10.662;2023-12-29T03:21:54;1.93;;;1.73;;
72676;SDS011;60755;51.374;10.662;2023-12-29T03:24:21;1.60;;;1.30;;
72676;SDS011;60755;51.374;10.662;2023-12-29T03:26:47;1.63;;;1.63;;
72676;SDS011;60755;51.374;10.662;2023-12-29T03:29:15;1.50;;;1.50;;
72676;SDS011;60755;51.374;10.662;2023-12-29T03:31:43;2.73;;;1.77;;
72676;SDS011;60755;51.374;10.662;2023-12-29T03:34:11;2.37;;;1.67;;
72676;SDS011;60755;51.374;10.662;2023-12-29T03:36:38;2.20;;;1.60;;
72676;SDS011;60755;51.374;10.662;2023-12-29T03:39:05;1.70;;;1.60;;
72676;SDS011;60755;51.374;10.662;2023-12-29T03:41:33;1.60;;;1.50;;
72676;SDS011;60755;51.374;10.662;2023-12-29T03:43:59;1.40;;;1.40;;
72676;SDS011;60755;51.374;10.662;2023-12-29T03:46:26;1.90;;;1.80;;
72676;SDS011;60755;51.374;10.662;2023-12-29T03:48:55;1.50;;;1.50;;
72676;SDS011;60755;51.374;10.662;2023-12-29T03:51:22;2.10;;;1.83;;
72676;SDS011;60755;51.374;10.662;2023-12-29T03:53:49;1.60;;;1.50;;
72676;SDS011;60755;51.374;10.662;2023-12-29T03:56:16;1.57;;;1.50;;
72676;SDS011;60755;51.374;10.662;2023-12-29T03:58:45;3.33;;;1.60;;
72676;SDS011;60755;51.374;10.662;2023-12-29T04:01:14;1.80;;;1.70;;
72676;SDS011;60755;51.374;10.662;2023-12-29T04:03:42;1.93;;;1.80;;
72676;SDS011;60755;51.374;10.662;2023-12-29T04:06:11;2.80;;;1.90;;
72676;SDS011;60755;51.374;10.662;2023-12-29T04:08:38;2.20;;;1.87;;
72676;SDS011;60755;51.374;10.662;2023-12-29T04:11:05;1.80;;;1.70;;
72676;SDS011;60755;51.374;10.662;2023-12-29T04:13:32;1.70;;;1.70;;
72676;SDS011;60755;51.374;10.662;2023-12-29T04:16:00;2.00;;;1.63;;
72676;SDS011;60755;51.374;10.662;2023-12-29T04:18:28;1.53;;;1.53;;
72676;SDS011;60755;51.374;10.662;2023-12-29T04:20:55;1.67;;;1.57;;
72676;SDS011;60755;51.374;10.662;2023-12-29T04:23:23;1.90;;;1.80;;
72676;SDS011;60755;51.374;10.662;2023-12-29T04:25:50;2.93;;;1.70;;
72676;SDS011;60755;51.374;10.662;2023-12-29T04:28:18;1.93;;;1.80;;
72676;SDS011;60755;51.374;10.662;2023-12-29T04:30:45;2.03;;;1.77;;
72676;SDS011;60755;51.374;10.662;2023-12-29T04:33:12;1.60;;;1.50;;
72676;SDS011;60755;51.374;10.662;2023-12-29T04:35:39;1.70;;;1.60;;
72676;SDS011;60755;51.374;10.662;2023-12-29T04:38:06;3.13;;;1.77;;
72676;SDS011;60755;51.374;10.662;2023-12-29T04:40:35;2.00;;;1.70;;
72676;SDS011;60755;51.374;10.662;2023-12-29T04:43:03;3.07;;;1.80;;
72676;SDS011;60755;51.374;10.662;2023-12-29T04:45:30;1.60;;;1.50;;
72676;SDS011;60755;51.374;10.662;2023-12-29T04:47:57;1.80;;;1.70;;
72676;SDS011;60755;51.374;10.662;2023-12-29T04:50:24;1.67;;;1.53;;
72676;SDS011;60755;51.374;10.662;2023-12-29T04:52:51;4.40;;;1.70;;
72676;SDS011;60755;51.374;10.662;2023-12-29T04:55:18;1.57;;;1.47;;
72676;SDS011;60755;51.374;10.662;2023-12-29T04:57:47;2.50;;;1.60;;
72676;SDS011;60755;51.374;10.662;2023-12-29T05:00:14;1.77;;;1.60;;
72676;SDS011;60755;51.374;10.662;2023-12-29T05:02:41;1.67;;;1.57;;
72676;SDS011;60755;51.374;10.662;2023-12-29T05:05:09;4.00;;;1.50;;
72676;SDS011;60755;51.374;10.662;2023-12-29T05:07:36;2.50;;;1.77;;
72676;SDS011;60755;51.374;10.662;2023-12-29T05:10:03;1.53;;;1.50;;
72676;SDS011;60755;51.374;10.662;2023-12-29T05:12:30;2.33;;;1.57;;
72676;SDS011;60755;51.374;10.662;2023-12-29T05:14:58;2.53;;;1.57;;
72676;SDS011;60755;51.374;10.662;2023-12-29T05:17:25;3.00;;;1.50;;
72676;SDS011;60755;51.374;10.662;2023-12-29T05:19:52;1.70;;;1.60;;
72676;SDS011;60755;51.374;10.662;2023-12-29T05:22:19;2.17;;;1.60;;
72676;SDS011;60755;51.374;10.662;2023-12-29T05:24:46;2.20;;;2.10;;
72676;SDS011;60755;51.374;10.662;2023-12-29T05:27:13;3.33;;;1.90;;
72676;SDS011;60755;51.374;10.662;2023-12-29T05:29:41;1.47;;;1.37;;
72676;SDS011;60755;51.374;10.662;2023-12-29T05:32:09;1.70;;;1.60;;
72676;SDS011;60755;51.374;10.662;2023-12-29T05:34:36;3.17;;;1.63;;
72676;SDS011;60755;51.374;10.662;2023-12-29T05:37:03;5.80;;;1.90;;
72676;SDS011;60755;51.374;10.662;2023-12-29T05:39:30;1.70;;;1.60;;
72676;SDS011;60755;51.374;10.662;2023-12-29T05:41:57;2.20;;;2.00;;
72676;SDS011;60755;51.374;10.662;2023-12-29T05:44:24;4.50;;;1.80;;
72676;SDS011;60755;51.374;10.662;2023-12-29T05:46:51;1.60;;;1.50;;
72676;SDS011;60755;51.374;10.662;2023-12-29T05:49:25;2.80;;;1.60;;
72676;SDS011;60755;51.374;10.662;2023-12-29T05:51:52;1.70;;;1.60;;
72676;SDS011;60755;51.374;10.662;2023-12-29T05:54:19;1.70;;;1.60;;
72676;SDS011;60755;51.374;10.662;2023-12-29T05:56:46;2.90;;;1.97;;
72676;SDS011;60755;51.374;10.662;2023-12-29T05:59:13;2.37;;;1.70;;
72676;SDS011;60755;51.374;10.662;2023-12-29T06:01:40;1.77;;;1.63;;
72676;SDS011;60755;51.374;10.662;2023-12-29T06:04:07;1.70;;;1.60;;
72676;SDS011;60755;51.374;10.662;2023-12-29T06:06:36;1.90;;;1.47;;
72676;SDS011;60755;51.374;10.662;2023-12-29T06:09:03;3.83;;;2.23;;
72676;SDS011;60755;51.374;10.662;2023-12-29T06:11:30;2.83;;;1.70;;
72676;SDS011;60755;51.374;10.662;2023-12-29T06:13:57;1.60;;;1.57;;
72676;SDS011;60755;51.374;10.662;2023-12-29T06:16:24;1.70;;;1.60;;
72676;SDS011;60755;51.374;10.662;2023-12-29T06:18:52;2.50;;;1.80;;
72676;SDS011;60755;51.374;10.662;2023-12-29T06:21:19;2.67;;;1.50;;
72676;SDS011;60755;51.374;10.662;2023-12-29T06:23:48;1.57;;;1.47;;
72676;SDS011;60755;51.374;10.662;2023-12-29T06:26:15;1.60;;;1.50;;
72676;SDS011;60755;51.374;10.662;2023-12-29T06:28:43;1.53;;;1.50;;
72676;SDS011;60755;51.374;10.662;2023-12-29T06:31:11;1.70;;;1.70;;
72676;SDS011;60755;51.374;10.662;2023-12-29T06:33:40;1.67;;;1.40;;
72676;SDS011;60755;51.374;10.662;2023-12-29T06:36:08;1.93;;;1.30;;
72676;SDS011;60755;51.374;10.662;2023-12-29T06:38:35;2.30;;;1.53;;
72676;SDS011;60755;51.374;10.662;2023-12-29T06:41:04;2.20;;;1.63;;
72676;SDS011;60755;51.374;10.662;2023-12-29T06:43:32;1.50;;;1.40;;
72676;SDS011;60755;51.374;10.662;2023-12-29T06:45:59;2.13;;;1.57;;
72676;SDS011;60755;51.374;10.662;2023-12-29T06:48:26;2.53;;;1.93;;
72676;SDS011;60755;51.374;10.662;2023-12-29T06:50:53;3.07;;;1.67;;
72676;SDS011;60755;51.374;10.662;2023-12-29T06:53:21;1.53;;;1.40;;
72676;SDS011;60755;51.374;10.662;2023-12-29T06:55:48;1.30;;;1.30;;
72676;SDS011;60755;51.374;10.662;2023-12-29T06:58:16;1.30;;;1.27;;
72676;SDS011;60755;51.374;10.662;2023-12-29T07:00:43;2.03;;;1.40;;
72676;SDS011;60755;51.374;10.662;2023-12-29T07:03:12;4.83;;;1.70;;
72676;SDS011;60755;51.374;10.662;2023-12-29T07:05:39;2.23;;;1.60;;
72676;SDS011;60755;51.374;10.662;2023-12-29T07:08:07;3.17;;;1.60;;
72676;SDS011;60755;51.374;10.662;2023-12-29T07:10:34;3.77;;;1.67;;
72676;SDS011;60755;51.374;10.662;2023-12-29T07:13:01;3.73;;;1.80;;
72676;SDS011;60755;51.374;10.662;2023-12-29T07:15:29;2.93;;;1.50;;
72676;SDS011;60755;51.374;10.662;2023-12-29T07:17:56;1.90;;;1.50;;
72676;SDS011;60755;51.374;10.662;2023-12-29T07:20:23;1.50;;;1.40;;
72676;SDS011;60755;51.374;10.662;2023-12-29T07:22:50;1.67;;;1.57;;
72676;SDS011;60755;51.374;10.662;2023-12-29T07:25:17;1.70;;;1.60;;
72676;SDS011;60755;51.374;10.662;2023-12-29T07:27:44;4.40;;;1.90;;
72676;SDS011;60755;51.374;10.662;2023-12-29T07:30:12;3.57;;;2.07;;
72676;SDS011;60755;51.374;10.662;2023-12-29T07:32:41;1.90;;;1.80;;
72676;SDS011;60755;51.374;10.662;2023-12-29T07:35:08;4.73;;;3.03;;
72676;SDS011;60755;51.374;10.662;2023-12-29T07:37:35;3.47;;;1.60;;
72676;SDS011;60755;51.374;10.662;2023-12-29T07:40:03;2.33;;;1.90;;
72676;SDS011;60755;51.374;10.662;2023-12-29T07:42:33;3.17;;;1.80;;
72676;SDS011;60755;51.374;10.662;2023-12-29T07:45:00;2.80;;;2.60;;
72676;SDS011;60755;51.374;10.662;2023-12-29T07:47:27;1.90;;;1.80;;
72676;SDS011;60755;51.374;10.662;2023-12-29T07:49:55;2.13;;;1.67;;
72676;SDS011;60755;51.374;10.662;2023-12-29T07:52:23;2.57;;;1.87;;
72676;SDS011;60755;51.374;10.662;2023-12-29T07:54:50;3.60;;;1.60;;
72676;SDS011;60755;51.374;10.662;2023-12-29T07:57:17;1.80;;;1.70;;
72676;SDS011;60755;51.374;10.662;2023-12-29T07:59:43;1.73;;;1.60;;
72676;SDS011;60755;51.374;10.662;2023-12-29T08:02:11;1.60;;;1.50;;
72676;SDS011;60755;51.374;10.662;2023-12-29T08:04:38;1.60;;;1.50;;
72676;SDS011;60755;51.374;10.662;2023-12-29T08:07:06;1.53;;;1.50;;
72676;SDS011;60755;51.374;10.662;2023-12-29T08:09:33;2.23;;;1.50;;
72676;SDS011;60755;51.374;10.662;2023-12-29T08:12:00;3.43;;;1.70;;
72676;SDS011;60755;51.374;10.662;2023-12-29T08:14:27;3.43;;;1.60;;
72676;SDS011;60755;51.374;10.662;2023-12-29T08:16:54;3.67;;;1.60;;
72676;SDS011;60755;51.374;10.662;2023-12-29T08:19:22;3.27;;;1.70;;
72676;SDS011;60755;51.374;10.662;2023-12-29T08:21:50;2.30;;;1.57;;
72676;SDS011;60755;51.374;10.662;2023-12-29T08:24:18;4.50;;;1.73;;
72676;SDS011;60755;51.374;10.662;2023-12-29T08:26:46;5.63;;;2.40;;
72676;SDS011;60755;51.374;10.662;2023-12-29T08:29:13;4.47;;;3.20;;
72676;SDS011;60755;51.374;10.662;2023-12-29T08:31:41;4.03;;;2.63;;
72676;SDS011;60755;51.374;10.662;2023-12-29T08:34:08;3.57;;;2.70;;
72676;SDS011;60755;51.374;10.662;2023-12-29T08:36:35;5.13;;;4.13;;
72676;SDS011;60755;51.374;10.662;2023-12-29T08:39:02;10.03;;;4.07;;
72676;SDS011;60755;51.374;10.662;2023-12-29T08:41:30;6.63;;;4.70;;
72676;SDS011;60755;51.374;10.662;2023-12-29T08:43:57;3.03;;;2.70;;
72676;SDS011;60755;51.374;10.662;2023-12-29T08:46:24;2.93;;;2.30;;
72676;SDS011;60755;51.374;10.662;2023-12-29T08:48:51;3.27;;;2.30;;
72676;SDS011;60755;51.374;10.662;2023-12-29T08:51:18;4.43;;;1.90;;
72676;SDS011;60755;51.374;10.662;2023-12-29T08:53:45;1.87;;;1.63;;
72676;SDS011;60755;51.374;10.662;2023-12-29T08:56:12;2.77;;;1.80;;
72676;SDS011;60755;51.374;10.662;2023-12-29T08:58:41;2.37;;;1.47;;
72676;SDS011;60755;51.374;10.662;2023-12-29T09:01:09;1.87;;;1.63;;
72676;SDS011;60755;51.374;10.662;2023-12-29T09:03:36;2.90;;;2.37;;
72676;SDS011;60755;51.374;10.662;2023-12-29T09:06:04;3.53;;;1.50;;
72676;SDS011;60755;51.374;10.662;2023-12-29T09:08:34;1.63;;;1.43;;
72676;SDS011;60755;51.374;10.662;2023-12-29T09:11:01;3.57;;;1.77;;
72676;SDS011;60755;51.374;10.662;2023-12-29T09:13:28;1.60;;;1.50;;
72676;SDS011;60755;51.374;10.662;2023-12-29T09:15:56;1.97;;;1.73;;
72676;SDS011;60755;51.374;10.662;2023-12-29T09:18:23;3.60;;;1.40;;
72676;SDS011;60755;51.374;10.662;2023-12-29T09:20:50;1.63;;;1.53;;
72676;SDS011;60755;51.374;10.662;2023-12-29T09:23:18;1.60;;;1.50;;
72676;SDS011;60755;51.374;10.662;2023-12-29T09:25:45;2.20;;;1.53;;
72676;SDS011;60755;51.374;10.662;2023-12-29T09:28:12;2.67;;;1.57;;
72676;SDS011;60755;51.374;10.662;2023-12-29T09:30:39;1.30;;;1.30;;
72676;SDS011;60755;51.374;10.662;2023-12-29T09:33:08;2.60;;;1.50;;
72676;SDS011;60755;51.374;10.662;2023-12-29T09:35:38;5.23;;;1.70;;
72676;SDS011;60755;51.374;10.662;2023-12-29T09:38:05;3.37;;;3.00;;
72676;SDS011;60755;51.374;10.662;2023-12-29T09:40:31;3.00;;;2.07;;
72676;SDS011;60755;51.374;10.662;2023-12-29T09:42:59;1.70;;;1.60;;
72676;SDS011;60755;51.374;10.662;2023-12-29T09:45:29;2.37;;;1.50;;
72676;SDS011;60755;51.374;10.662;2023-12-29T09:47:59;1.67;;;1.50;;
72676;SDS011;60755;51.374;10.662;2023-12-29T09:50:29;3.43;;;1.50;;
72676;SDS011;60755;51.374;10.662;2023-12-29T09:52:56;1.60;;;1.50;;
72676;SDS011;60755;51.374;10.662;2023-12-29T09:55:24;4.53;;;1.53;;
72676;SDS011;60755;51.374;10.662;2023-12-29T09:57:52;4.10;;;2.90;;
72676;SDS011;60755;51.374;10.662;2023-12-29T10:00:20;2.30;;;2.00;;
72676;SDS011;60755;51.374;10.662;2023-12-29T10:02:47;2.03;;;1.80;;
72676;SDS011;60755;51.374;10.662;2023-12-29T10:05:17;2.07;;;1.70;;
72676;SDS011;60755;51.374;10.662;2023-12-29T10:07:46;2.60;;;1.30;;
72676;SDS011;60755;51.374;10.662;2023-12-29T10:10:14;2.10;;;1.50;;
72676;SDS011;60755;51.374;10.662;2023-12-29T10:12:42;1.70;;;1.30;;
72676;SDS011;60755;51.374;10.662;2023-12-29T10:15:12;1.50;;;1.40;;
72676;SDS011;60755;51.374;10.662;2023-12-29T10:17:48;1.47;;;1.37;;
72676;SDS011;60755;51.374;10.662;2023-12-29T10:20:31;3.23;;;1.30;;
72676;SDS011;60755;51.374;10.662;2023-12-29T10:23:10;2.10;;;1.30;;
72676;SDS011;60755;51.374;10.662;2023-12-29T10:25:39;1.40;;;1.40;;
72676;SDS011;60755;51.374;10.662;2023-12-29T10:28:07;2.30;;;1.40;;
72676;SDS011;60755;51.374;10.662;2023-12-29T10:30:36;2.50;;;2.00;;
72676;SDS011;60755;51.374;10.662;2023-12-29T10:33:04;2.73;;;1.43;;
72676;SDS011;60755;51.374;10.662;2023-12-29T10:35:31;1.87;;;1.70;;
72676;SDS011;60755;51.374;10.662;2023-12-29T10:38:07;2.63;;;2.20;;
72676;SDS011;60755;51.374;10.662;2023-12-29T10:40:37;1.83;;;1.73;;
72676;SDS011;60755;51.374;10.662;2023-12-29T10:43:04;2.10;;;1.33;;
72676;SDS011;60755;51.374;10.662;2023-12-29T10:45:33;1.63;;;1.60;;
72676;SDS011;60755;51.374;10.662;2023-12-29T10:48:00;5.23;;;1.60;;
72676;SDS011;60755;51.374;10.662;2023-12-29T10:50:27;1.70;;;1.37;;
72676;SDS011;60755;51.374;10.662;2023-12-29T10:55:42;1.30;;;1.30;;
72676;SDS011;60755;51.374;10.662;2023-12-29T10:58:10;1.60;;;1.30;;
72676;SDS011;60755;51.374;10.662;2023-12-29T11:00:37;1.40;;;1.40;;
72676;SDS011;60755;51.374;10.662;2023-12-29T11:03:04;1.60;;;1.50;;
72676;SDS011;60755;51.374;10.662;2023-12-29T11:05:32;1.27;;;1.27;;
72676;SDS011;60755;51.374;10.662;2023-12-29T11:08:00;1.50;;;1.40;;
72676;SDS011;60755;51.374;10.662;2023-12-29T11:10:28;1.77;;;1.40;;
72676;SDS011;60755;51.374;10.662;2023-12-29T11:12:57;1.80;;;1.50;;
72676;SDS011;60755;51.374;10.662;2023-12-29T11:15:25;1.50;;;1.50;;
72676;SDS011;60755;51.374;10.662;2023-12-29T11:17:52;1.73;;;1.40;;
72676;SDS011;60755;51.374;10.662;2023-12-29T11:20:22;1.90;;;1.43;;
72676;SDS011;60755;51.374;10.662;2023-12-29T11:22:51;1.83;;;1.73;;
72676;SDS011;60755;51.374;10.662;2023-12-29T11:25:19;1.70;;;1.60;;
72676;SDS011;60755;51.374;10.662;2023-12-29T11:27:47;1.87;;;1.40;;
72676;SDS011;60755;51.374;10.662;2023-12-29T11:30:15;2.23;;;1.60;;
72676;SDS011;60755;51.374;10.662;2023-12-29T11:32:45;4.20;;;1.70;;
72676;SDS011;60755;51.374;10.662;2023-12-29T11:35:17;1.60;;;1.50;;
72676;SDS011;60755;51.374;10.662;2023-12-29T11:37:50;1.33;;;1.33;;
72676;SDS011;60755;51.374;10.662;2023-12-29T11:40:36;1.70;;;1.60;;
72676;SDS011;60755;51.374;10.662;2023-12-29T11:43:12;1.47;;;1.43;;
72676;SDS011;60755;51.374;10.662;2023-12-29T11:45:41;2.37;;;1.60;;
72676;SDS011;60755;51.374;10.662;2023-12-29T11:48:09;3.17;;;2.40;;
72676;SDS011;60755;51.374;10.662;2023-12-29T11:50:37;1.50;;;1.40;;
72676;SDS011;60755;51.374;10.662;2023-12-29T11:53:05;1.93;;;1.80;;
72676;SDS011;60755;51.374;10.662;2023-12-29T11:55:34;1.50;;;1.50;;
72676;SDS011;60755;51.374;10.662;2023-12-29T11:58:01;1.60;;;1.50;;
72676;SDS011;60755;51.374;10.662;2023-12-29T12:00:44;2.23;;;1.80;;
72676;SDS011;60755;51.374;10.662;2023-12-29T12:03:13;1.53;;;1.53;;
72676;SDS011;60755;51.374;10.662;2023-12-29T12:05:45;2.13;;;1.37;;
72676;SDS011;60755;51.374;10.662;2023-12-29T12:08:26;1.47;;;1.47;;
72676;SDS011;60755;51.374;10.662;2023-12-29T12:10:54;1.50;;;1.40;;
72676;SDS011;60755;51.374;10.662;2023-12-29T12:16:46;2.10;;;2.00;;
72676;SDS011;60755;51.374;10.662;2023-12-29T12:19:14;1.50;;;1.50;;
72676;SDS011;60755;51.374;10.662;2023-12-29T12:21:42;3.30;;;1.50;;
72676;SDS011;60755;51.374;10.662;2023-12-29T12:24:13;1.47;;;1.23;;
72676;SDS011;60755;51.374;10.662;2023-12-29T12:26:41;1.40;;;1.30;;
72676;SDS011;60755;51.374;10.662;2023-12-29T12:29:08;3.03;;;1.80;;
72676;SDS011;60755;51.374;10.662;2023-12-29T12:31:36;2.47;;;1.47;;
72676;SDS011;60755;51.374;10.662;2023-12-29T12:34:03;1.50;;;1.40;;
72676;SDS011;60755;51.374;10.662;2023-12-29T12:36:31;2.70;;;1.50;;
72676;SDS011;60755;51.374;10.662;2023-12-29T12:38:58;1.30;;;1.30;;
72676;SDS011;60755;51.374;10.662;2023-12-29T12:41:26;1.10;;;1.10;;
72676;SDS011;60755;51.374;10.662;2023-12-29T12:43:57;1.47;;;1.47;;
72676;SDS011;60755;51.374;10.662;2023-12-29T12:46:33;1.40;;;1.30;;
72676;SDS011;60755;51.374;10.662;2023-12-29T12:49:03;1.07;;;1.07;;
72676;SDS011;60755;51.374;10.662;2023-12-29T12:51:31;1.03;;;0.97;;
72676;SDS011;60755;51.374;10.662;2023-12-29T12:53:59;2.63;;;1.30;;
72676;SDS011;60755;51.374;10.662;2023-12-29T12:56:27;1.13;;;1.03;;
72676;SDS011;60755;51.374;10.662;2023-12-29T12:58:56;1.20;;;1.20;;
72676;SDS011;60755;51.374;10.662;2023-12-29T13:01:23;1.30;;;1.20;;
72676;SDS011;60755;51.374;10.662;2023-12-29T13:03:52;1.00;;;1.00;;
72676;SDS011;60755;51.374;10.662;2023-12-29T13:06:20;1.20;;;1.20;;
72676;SDS011;60755;51.374;10.662;2023-12-29T13:08:48;2.37;;;1.40;;
72676;SDS011;60755;51.374;10.662;2023-12-29T13:11:18;1.43;;;1.20;;
72676;SDS011;60755;51.374;10.662;2023-12-29T13:13:47;1.47;;;1.23;;
72676;SDS011;60755;51.374;10.662;2023-12-29T13:16:14;1.07;;;1.07;;
72676;SDS011;60755;51.374;10.662;2023-12-29T13:18:41;1.17;;;1.00;;
72676;SDS011;60755;51.374;10.662;2023-12-29T13:21:08;0.90;;;0.90;;
72676;SDS011;60755;51.374;10.662;2023-12-29T13:23:37;1.47;;;1.17;;
72676;SDS011;60755;51.374;10.662;2023-12-29T13:26:05;1.17;;;1.10;;
72676;SDS011;60755;51.374;10.662;2023-12-29T13:28:34;1.33;;;1.13;;
72676;SDS011;60755;51.374;10.662;2023-12-29T13:31:02;1.43;;;1.00;;
72676;SDS011;60755;51.374;10.662;2023-12-29T13:33:31;2.73;;;1.00;;
72676;SDS011;60755;51.374;10.662;2023-12-29T13:36:05;1.30;;;1.07;;
72676;SDS011;60755;51.374;10.662;2023-12-29T13:38:38;1.10;;;1.00;;
72676;SDS011;60755;51.374;10.662;2023-12-29T13:41:12;1.00;;;1.00;;
72676;SDS011;60755;51.374;10.662;2023-12-29T13:43:42;1.90;;;1.00;;
72676;SDS011;60755;51.374;10.662;2023-12-29T13:46:11;1.90;;;0.87;;
72676;SDS011;60755;51.374;10.662;2023-12-29T13:48:42;1.23;;;1.00;;
72676;SDS011;60755;51.374;10.662;2023-12-29T13:51:12;1.00;;;0.90;;
72676;SDS011;60755;51.374;10.662;2023-12-29T13:53:40;1.00;;;1.00;;
72676;SDS011;60755;51.374;10.662;2023-12-29T13:56:07;1.47;;;1.00;;
72676;SDS011;60755;51.374;10.662;2023-12-29T13:58:34;1.00;;;1.00;;
72676;SDS011;60755;51.374;10.662;2023-12-29T14:01:01;0.80;;;0.80;;
72676;SDS011;60755;51.374;10.662;2023-12-29T14:03:31;1.53;;;0.90;;
72676;SDS011;60755;51.374;10.662;2023-12-29T14:06:04;2.67;;;2.20;;
72676;SDS011;60755;51.374;10.662;2023-12-29T14:08:39;2.30;;;1.50;;
72676;SDS011;60755;51.374;10.662;2023-12-29T14:11:11;2.47;;;1.40;;
72676;SDS011;60755;51.374;10.662;2023-12-29T14:13:40;1.13;;;1.00;;
72676;SDS011;60755;51.374;10.662;2023-12-29T14:16:08;0.90;;;0.90;;
72676;SDS011;60755;51.374;10.662;2023-12-29T14:18:42;0.90;;;0.90;;
72676;SDS011;60755;51.374;10.662;2023-12-29T14:21:22;0.90;;;0.90;;
72676;SDS011;60755;51.374;10.662;2023-12-29T14:23:59;1.43;;;1.10;;
72676;SDS011;60755;51.374;10.662;2023-12-29T14:26:33;1.80;;;1.70;;
72676;SDS011;60755;51.374;10.662;2023-12-29T14:29:00;2.33;;;1.03;;
72676;SDS011;60755;51.374;10.662;2023-12-29T14:31:28;1.10;;;1.10;;
72676;SDS011;60755;51.374;10.662;2023-12-29T14:33:58;1.70;;;1.13;;
72676;SDS011;60755;51.374;10.662;2023-12-29T14:36:25;0.83;;;0.83;;
72676;SDS011;60755;51.374;10.662;2023-12-29T14:38:52;1.43;;;0.93;;
72676;SDS011;60755;51.374;10.662;2023-12-29T14:41:21;1.00;;;1.00;;
72676;SDS011;60755;51.374;10.662;2023-12-29T14:43:48;1.00;;;1.00;;
72676;SDS011;60755;51.374;10.662;2023-12-29T14:46:15;0.87;;;0.87;;